East Corinth, ME

2:18 PM EDT on March 30, 2015 (GMT -0400)
KMEGARLA2 | | Change Station
CLOSE
Current Station
Personal Weather Station
Location: Garland, ME
Elevation: 410 ft
Nearby Weather Stations

Elev 410 ft 45.02 °N, 69.13 °W | Updated 29 seconds ago

Snow
Snow
33.4 °F
Feels Like 29 °F
N
5.0
Wind Variable Wind from SSW
Gusts 19.0 mph

Today
High -- | Low -- °F
--% Chance of Precip.
Yesterday
High -- | Low -- °F
Precip. -- in
6:20 AM 7:00 PM
Waxing Gibbous, 81% visible
Pressure 29.71 in
Visibility 2.5 miles
Clouds Mostly Cloudy 900 ft
Overcast 2100 ft
Windchill 29 °F
Dew Point 32 °F
Humidity 93%
Rainfall 0.00 in
Snow Depth Not available.
UV 2 out of 12
Pollen 1.80 out of 12
Air Quality Not available.
Flu Activity Not available.
SPECI KBGR 301802Z 18013G23KT 2 1/2SM -SN BR BKN009 OVC021 01/M01 A2971 RMK AO2 P0000 T00111006

More Conditions Fewer Conditions

Pressure 29.71 in
Visibility 2.5 miles
Clouds Mostly Cloudy 900 ft
Overcast 2100 ft
Windchill 29 °F
Dew Point 32 °F
Humidity 93%
Rainfall 0.00 in
Snow Depth Not available.
UV 2 out of 12
Pollen 1.80 out of 12
Air Quality Not available.
Flu Activity Not available.
SPECI KBGR 301802Z 18013G23KT 2 1/2SM -SN BR BKN009 OVC021 01/M01 A2971 RMK AO2 P0000 T00111006

More Conditions Fewer Conditions

10-Day Weather Forecast

Almanac

Astronomy

Mar. 30, 2015 Rise Set
Actual Time
Civil Twilight
Nautical Twilight
Astronomical Twilight
Moon
Length of Visible Light
Length of Day
Tomorrow will be .
, % of the Moon is Illuminated

Today's Extremes

State Highs State Lows

Community

WunderPhotos

Upload Photos

1,809,559 photos uploaded!

WunderBlogs® & News

Nearby

Air Quality

  Air Quality AQ Index Pollutant
Not available.

Snow Depth

Station Depth Elevation

Earthquake Activity

City Distance Mag. Time & Date
Minimum magnitude displayed is 2.5.

Coastal Water Temperatures

Place Temperature

Stations

Nearby Weather Stations

Station Location Temp. Windchill Dew Point Humidity Wind Precip. Elev Updated Type